Time;durP1;ratioP1;P1;durP2;ratioP2;P2;SDS_P1;SDS_P2;PMS_P1;PMS_P2;Temp;Humidity;BMP_temperature;BMP_pressure;BME280_temperature;BME280_humidity;BME280_pressure;Samples;Min_cycle;Max_cycle;Signal;HPM_P1;HPM_P2
2022/05/04 00:00:04;;;;;;;3.05;1.00;;;19.40;42.30;18.60;101539.00;;;;5033360;28;20107;-71
2022/05/04 00:02:50;;;;;;;2.25;1.15;;;19.40;42.30;18.60;101537.00;;;;5021900;28;20137;-71
2022/05/04 00:05:36;;;;;;;3.90;1.42;;;19.40;42.30;18.60;101528.00;;;;5020387;28;20077;-72
2022/05/04 00:08:22;;;;;;;3.95;1.20;;;19.50;42.40;18.60;101534.00;;;;5031141;28;20052;-71
2022/05/04 00:11:08;;;;;;;5.53;1.58;;;19.40;42.40;18.60;101541.00;;;;5028036;28;20091;-71
2022/05/04 00:13:54;;;;;;;2.60;1.25;;;19.40;42.30;18.60;101531.00;;;;5036229;28;20038;-71
2022/05/04 00:16:40;;;;;;;3.95;1.42;;;19.40;42.30;18.60;101538.00;;;;5035197;28;20042;-71
2022/05/04 00:19:26;;;;;;;3.25;1.50;;;19.40;42.40;18.60;101536.00;;;;5037233;28;20539;-71
2022/05/04 00:22:20;;;;;;;3.55;1.17;;;19.40;42.40;18.60;101526.00;;;;5038005;28;20049;-71
2022/05/04 00:25:06;;;;;;;3.60;1.35;;;19.40;42.30;18.60;101540.00;;;;5035189;28;20049;-71
2022/05/04 00:27:52;;;;;;;3.63;1.20;;;19.40;42.30;18.60;101536.00;;;;5007271;28;20049;-71
2022/05/04 00:30:39;;;;;;;3.33;1.20;;;19.40;42.30;18.60;101544.00;;;;5032042;28;20457;-71
2022/05/04 00:33:25;;;;;;;4.97;1.55;;;19.30;42.20;18.60;101535.00;;;;5033581;28;20041;-71
2022/05/04 00:36:11;;;;;;;4.88;1.20;;;19.30;42.30;18.50;101540.00;;;;5033292;28;20095;-71
2022/05/04 00:38:57;;;;;;;3.50;1.67;;;19.30;42.20;18.60;101542.00;;;;5038461;28;20041;-70
2022/05/04 00:41:44;;;;;;;3.85;1.20;;;19.30;42.30;18.50;101543.00;;;;5018643;28;20048;-71
2022/05/04 00:44:30;;;;;;;4.25;1.73;;;19.30;42.30;18.50;101538.00;;;;5038824;28;20032;-71
2022/05/04 00:47:16;;;;;;;2.53;1.30;;;19.30;42.30;18.50;101529.00;;;;5035627;28;20044;-71
2022/05/04 00:50:06;;;;;;;3.40;1.25;;;19.30;42.30;18.50;101533.00;;;;5011584;28;20804;-71
2022/05/04 00:52:52;;;;;;;4.03;1.60;;;19.30;42.30;18.50;101536.00;;;;5020765;28;20159;-71
2022/05/04 00:55:38;;;;;;;2.60;1.23;;;19.30;42.30;18.50;101534.00;;;;5036391;28;20090;-71
2022/05/04 01:01:30;;;;;;;3.25;1.33;;;19.30;42.30;18.50;101528.00;;;;5007876;28;20068;-71
2022/05/04 01:04:18;;;;;;;2.47;1.30;;;19.30;42.30;18.50;101522.00;;;;5024272;28;20051;-71
2022/05/04 01:07:04;;;;;;;;;;;19.30;42.30;18.40;101528.00;;;;5032403;28;20041;-71
2022/05/04 01:09:50;;;;;;;2.75;1.38;;;19.30;42.30;18.40;101534.00;;;;5031265;28;19940;-71
2022/05/04 01:12:50;;;;;;;3.65;1.75;;;19.30;42.30;18.40;101530.00;;;;5036720;28;20048;-71
2022/05/04 01:15:36;;;;;;;4.53;1.80;;;19.20;42.20;18.50;101539.00;;;;5008437;28;20080;-71
2022/05/04 01:18:22;;;;;;;4.63;1.80;;;19.30;42.30;18.50;101536.00;;;;5027508;28;20461;-71
2022/05/04 01:21:08;;;;;;;3.78;1.95;;;19.20;42.20;18.50;101528.00;;;;5030363;28;20041;-71
2022/05/04 01:23:54;;;;;;;5.15;1.25;;;19.30;42.30;18.50;101542.00;;;;5039171;28;20037;-71
2022/05/04 01:26:40;;;;;;;4.65;1.65;;;19.20;42.20;18.50;101541.00;;;;5036680;28;20048;-71
2022/05/04 01:29:27;;;;;;;5.57;1.83;;;19.20;42.20;18.50;101530.00;;;;5028961;28;20110;-71
2022/05/04 01:32:13;;;;;;;2.80;1.50;;;19.20;42.30;18.40;101539.00;;;;5035209;28;20049;-71
2022/05/04 01:34:59;;;;;;;6.10;1.90;;;19.30;42.30;18.50;101534.00;;;;5020197;28;20200;-71
2022/05/04 01:37:45;;;;;;;4.35;1.73;;;19.10;42.20;18.40;101532.00;;;;5031748;28;20037;-71
2022/05/04 01:40:31;;;;;;;3.38;1.70;;;19.20;42.30;18.40;101533.00;;;;5036591;28;20041;-71
2022/05/04 01:43:17;;;;;;;3.08;1.40;;;19.20;42.30;18.40;101530.00;;;;5030038;28;20471;-71
2022/05/04 01:46:03;;;;;;;4.60;1.75;;;19.20;42.30;18.40;101535.00;;;;5029945;28;20037;-71
2022/05/04 01:48:49;;;;;;;6.53;1.83;;;19.20;42.30;18.40;101531.00;;;;5035237;28;20044;-71
2022/05/04 01:51:35;;;;;;;6.03;1.50;;;19.20;42.30;18.40;101524.00;;;;5031465;28;20036;-71
2022/05/04 01:54:22;;;;;;;4.40;1.90;;;19.20;42.30;18.40;101525.00;;;;5038600;28;20452;-71
2022/05/04 01:57:08;;;;;;;3.75;1.42;;;19.20;42.30;18.40;101528.00;;;;5021180;28;20049;-71
2022/05/04 01:59:54;;;;;;;5.03;2.03;;;19.20;42.30;18.40;101526.00;;;;5022697;28;20036;-71
2022/05/04 02:02:40;;;;;;;5.93;1.90;;;19.20;42.30;18.40;101528.00;;;;5016377;28;20087;-71
2022/05/04 02:05:26;;;;;;;5.20;2.30;;;19.20;42.30;18.40;101525.00;;;;5033717;28;20037;-71
2022/05/04 02:08:12;;;;;;;4.47;1.52;;;19.20;42.40;18.40;101525.00;;;;5020498;28;20080;-71
2022/05/04 02:10:58;;;;;;;2.88;1.55;;;19.20;42.40;18.40;101522.00;;;;5016407;28;20093;-71
2022/05/04 02:13:45;;;;;;;3.90;1.98;;;19.20;42.40;18.40;101521.00;;;;5029717;28;20490;-71
2022/05/04 02:16:31;;;;;;;3.80;1.67;;;19.20;42.30;18.40;101532.00;;;;5034962;28;20045;-71
2022/05/04 02:19:17;;;;;;;4.50;1.80;;;19.20;42.40;18.40;101522.00;;;;5034748;28;20037;-71
2022/05/04 02:22:03;;;;;;;5.60;1.75;;;19.10;42.30;18.40;101524.00;;;;5034048;28;20056;-71
2022/05/04 02:24:49;;;;;;;5.28;2.00;;;19.10;42.30;18.40;101526.00;;;;5036690;28;20045;-71
2022/05/04 02:27:35;;;;;;;6.13;2.00;;;19.10;42.20;18.40;101524.00;;;;5036464;28;20045;-71
2022/05/04 02:30:21;;;;;;;4.07;2.00;;;19.20;42.30;18.30;101528.00;;;;5032027;28;20453;-71
2022/05/04 02:33:07;;;;;;;4.25;1.33;;;19.10;42.30;18.40;101529.00;;;;5036174;28;20046;-71
2022/05/04 02:38:58;;;;;;;5.20;1.73;;;19.10;42.40;18.30;101515.00;;;;5035779;28;20234;-71
2022/05/04 02:41:45;;;;;;;5.55;1.95;;;19.10;42.30;18.30;101523.00;;;;5023186;28;20048;-71
2022/05/04 02:44:31;;;;;;;5.00;2.17;;;19.10;42.30;18.30;101519.00;;;;5034112;28;20072;-71
2022/05/04 02:47:17;;;;;;;4.15;2.00;;;19.20;42.40;18.30;101507.00;;;;5023083;28;20049;-71
2022/05/04 02:50:04;;;;;;;3.35;1.83;;;19.10;42.30;18.30;101506.00;;;;5039260;28;20049;-71
2022/05/04 02:52:50;;;;;;;3.38;1.85;;;19.10;42.40;18.30;101514.00;;;;5033513;28;20033;-71
2022/05/04 02:55:36;;;;;;;4.85;1.70;;;19.10;42.40;18.30;101510.00;;;;5040051;28;20049;-71
2022/05/04 02:58:22;;;;;;;4.65;1.95;;;19.10;42.40;18.30;101512.00;;;;5039255;28;20033;-71
2022/05/04 03:02:26;;;;;;;3.58;1.70;;;19.10;42.40;18.30;101510.00;;;;5022194;28;20049;-71
2022/05/04 03:04:16;;;;;;;4.50;1.77;;;19.10;42.40;18.30;101510.00;;;;5029656;28;20172;-71
2022/05/04 03:07:02;;;;;;;4.15;2.00;;;19.10;42.30;18.30;101514.00;;;;5025115;28;20041;-71
2022/05/04 03:09:48;;;;;;;4.68;2.00;;;19.10;42.40;18.30;101509.00;;;;5034826;28;20045;-71
2022/05/04 03:12:34;;;;;;;5.85;1.95;;;19.10;42.30;18.30;101507.00;;;;5039236;28;20124;-71
2022/05/04 03:15:20;;;;;;;3.92;2.05;;;19.10;42.30;18.30;101508.00;;;;5021487;28;20475;-71
2022/05/04 03:18:06;;;;;;;5.28;1.95;;;19.10;42.40;18.30;101505.00;;;;5045558;28;20045;-71
2022/05/04 03:20:52;;;;;;;3.78;1.55;;;19.10;42.40;18.30;101505.00;;;;5039264;28;20037;-71
2022/05/04 03:23:38;;;;;;;4.70;1.70;;;19.00;42.40;18.30;101498.00;;;;5042787;28;20072;-71
2022/05/04 03:26:24;;;;;;;4.07;1.95;;;19.10;42.40;18.20;101499.00;;;;5049375;28;20451;-71
2022/05/04 03:29:10;;;;;;;3.33;1.77;;;19.10;42.40;18.30;101505.00;;;;5043042;28;20483;-71
2022/05/04 03:31:56;;;;;;;5.35;1.83;;;19.10;42.40;18.20;101497.00;;;;5038555;28;20056;-71
2022/05/04 03:34:43;;;;;;;7.75;2.40;;;19.00;42.40;18.20;101494.00;;;;5034899;28;20049;-71
2022/05/04 03:37:29;;;;;;;7.72;2.20;;;19.00;42.40;18.20;101488.00;;;;5044766;28;20040;-70
2022/05/04 03:40:15;;;;;;;3.33;1.60;;;19.00;42.50;18.20;101490.00;;;;5044661;28;20324;-71
2022/05/04 03:43:01;;;;;;;3.00;1.70;;;19.00;42.40;18.20;101493.00;;;;5044893;28;20030;-71
2022/05/04 03:45:47;;;;;;;3.40;1.67;;;19.00;42.50;18.20;101494.00;;;;5043272;28;20044;-71
2022/05/04 03:48:33;;;;;;;4.03;1.70;;;18.90;42.40;18.20;101489.00;;;;5042770;28;20055;-71
2022/05/04 03:51:20;;;;;;;3.55;1.80;;;19.00;42.50;18.20;101492.00;;;;5043780;28;20045;-71
2022/05/04 03:54:06;;;;;;;5.03;1.80;;;19.00;42.50;18.20;101489.00;;;;5039591;28;20619;-71
2022/05/04 03:56:52;;;;;;;5.72;2.25;;;19.00;42.50;18.20;101492.00;;;;5026055;28;20111;-71
2022/05/04 03:59:38;;;;;;;5.43;2.28;;;18.90;42.40;18.20;101492.00;;;;5042363;28;20497;-71
2022/05/04 04:02:24;;;;;;;2.80;1.80;;;19.00;42.40;18.20;101494.00;;;;5043787;28;20041;-71
2022/05/04 04:05:10;;;;;;;4.13;1.90;;;18.90;42.30;18.20;101492.00;;;;5044818;28;20068;-71
2022/05/04 04:07:57;;;;;;;7.88;2.45;;;18.90;42.30;18.20;101494.00;;;;5034674;28;20045;-71
2022/05/04 04:10:43;;;;;;;5.43;2.10;;;18.90;42.30;18.20;101491.00;;;;5040667;28;20148;-71
2022/05/04 04:13:29;;;;;;;4.13;1.77;;;19.10;42.40;18.10;101486.00;;;;5042356;28;20460;-71
2022/05/04 04:16:16;;;;;;;3.70;1.88;;;18.90;42.30;18.10;101485.00;;;;5034311;28;20128;-70
2022/05/04 04:19:02;;;;;;;4.27;2.00;;;18.90;42.30;18.10;101496.00;;;;5039233;28;20044;-71
2022/05/04 04:21:52;;;;;;;4.38;1.95;;;18.90;42.30;18.10;101494.00;;;;5034484;28;20036;-71
2022/05/04 04:24:38;;;;;;;4.28;2.17;;;18.90;42.30;18.10;101494.00;;;;5039219;28;20368;-70
2022/05/04 04:27:24;;;;;;;3.63;1.77;;;18.90;42.30;18.10;101494.00;;;;5044804;28;20044;-70
2022/05/04 04:30:11;;;;;;;2.83;1.90;;;18.90;42.30;18.10;101505.00;;;;5037101;28;20227;-71
2022/05/04 04:32:57;;;;;;;4.30;2.00;;;18.90;42.30;18.10;101505.00;;;;5036283;28;20037;-71
2022/05/04 04:35:43;;;;;;;2.85;1.63;;;18.90;42.30;18.10;101508.00;;;;5034123;28;20534;-71
2022/05/04 04:38:29;;;;;;;5.63;1.92;;;18.90;42.30;18.10;101501.00;;;;5022172;28;20505;-71
2022/05/04 04:41:15;;;;;;;3.75;1.80;;;18.90;42.30;18.10;101507.00;;;;5031866;28;20028;-71
2022/05/04 04:44:01;;;;;;;3.78;1.80;;;18.90;42.30;18.10;101505.00;;;;5036682;28;20165;-71
2022/05/04 04:46:48;;;;;;;3.00;1.95;;;18.90;42.30;18.10;101506.00;;;;5028064;28;20140;-71
2022/05/04 04:49:34;;;;;;;5.07;1.60;;;18.90;42.20;18.10;101510.00;;;;5029998;28;20040;-71
2022/05/04 04:52:20;;;;;;;4.22;1.65;;;18.90;42.90;18.10;101507.00;;;;5035807;28;20060;-71
2022/05/04 04:55:07;;;;;;;4.38;1.50;;;19.00;42.30;18.10;101505.00;;;;5028978;28;20041;-71
2022/05/04 04:57:53;;;;;;;6.80;1.90;;;18.90;42.20;18.10;101497.00;;;;5036284;28;20041;-71
2022/05/04 05:00:39;;;;;;;4.20;1.90;;;18.90;42.10;18.10;101494.00;;;;5013395;28;20041;-71
2022/05/04 05:03:25;;;;;;;4.32;1.52;;;18.80;42.10;18.10;101499.00;;;;5010608;28;20049;-71
2022/05/04 05:06:12;;;;;;;5.47;1.90;;;18.90;42.10;18.10;101503.00;;;;5017591;28;20080;-71
2022/05/04 05:09:17;;;;;;;7.72;1.92;;;19.00;42.20;18.10;101505.00;;;;5023690;28;20061;-71
2022/05/04 05:12:04;;;;;;;5.40;1.83;;;18.90;42.20;18.10;101507.00;;;;5035926;28;20040;-71
2022/05/04 05:17:54;;;;;;;3.15;1.58;;;18.90;42.20;18.10;101511.00;;;;5020170;28;20045;-71
2022/05/04 05:20:40;;;;;;;5.15;2.00;;;18.90;42.20;18.10;101523.00;;;;5015309;28;20083;-71
2022/05/04 05:23:27;;;;;;;3.97;1.55;;;18.90;42.20;18.10;101507.00;;;;5035468;28;20044;-71
2022/05/04 05:26:14;;;;;;;4.90;1.48;;;18.90;42.20;18.10;101509.00;;;;5037254;28;20518;-71
2022/05/04 05:29:00;;;;;;;6.63;2.60;;;18.90;42.20;18.10;101515.00;;;;5031008;28;20044;-71
2022/05/04 05:31:46;;;;;;;3.72;1.50;;;18.80;42.20;18.10;101506.00;;;;5029114;28;20037;-71
2022/05/04 05:34:33;;;;;;;4.03;1.60;;;19.00;42.30;18.10;101509.00;;;;5035427;28;20037;-71
2022/05/04 05:37:22;;;;;;;4.32;1.63;;;18.90;42.20;18.10;101514.00;;;;5032295;28;20046;-71
2022/05/04 05:40:09;;;;;;;2.05;1.25;;;19.00;42.20;18.10;101508.00;;;;5032659;28;20037;-71
2022/05/04 05:42:55;;;;;;;3.37;1.43;;;18.90;42.20;18.10;101504.00;;;;5034754;28;20037;-71
2022/05/04 05:45:41;;;;;;;4.80;1.42;;;18.90;42.10;18.10;101496.00;;;;5032100;28;20080;-71
2022/05/04 05:48:28;;;;;;;3.83;1.33;;;19.00;42.20;18.10;101497.00;;;;5023201;28;20045;-71
2022/05/04 05:51:14;;;;;;;2.70;1.23;;;19.00;42.20;18.10;101503.00;;;;5030457;28;20037;-71
2022/05/04 05:54:00;;;;;;;5.03;1.35;;;19.00;42.20;18.20;101490.00;;;;5035589;28;20278;-71
2022/05/04 05:56:46;;;;;;;3.58;1.60;;;18.90;42.20;18.10;101497.00;;;;5031835;28;20041;-71
2022/05/04 05:59:32;;;;;;;5.32;1.40;;;19.00;42.20;18.20;101500.00;;;;5037368;28;20037;-71
2022/05/04 06:02:19;;;;;;;3.80;1.33;;;19.00;42.20;18.10;101501.00;;;;5037161;28;20044;-70
2022/05/04 06:05:06;;;;;;;2.47;1.13;;;18.90;42.20;18.10;101508.00;;;;5043559;28;20140;-70
2022/05/04 06:07:52;;;;;;;3.43;1.20;;;19.00;42.20;18.10;101508.00;;;;5034331;28;20037;-70
2022/05/04 06:10:39;;;;;;;3.60;1.40;;;19.00;42.20;18.10;101512.00;;;;5027412;28;20285;-71
2022/05/04 06:13:25;;;;;;;3.35;1.40;;;19.00;42.20;18.10;101514.00;;;;5021404;28;20041;-71
2022/05/04 06:16:11;;;;;;;4.15;1.40;;;19.00;42.20;18.20;101501.00;;;;5036657;28;20744;-70
2022/05/04 06:18:57;;;;;;;4.22;1.52;;;19.00;42.10;18.20;101499.00;;;;5040411;28;20053;-71
2022/05/04 06:21:43;;;;;;;8.02;1.50;;;19.00;42.10;18.10;101510.00;;;;5034387;28;20063;-71
2022/05/04 06:24:29;;;;;;;5.03;1.45;;;19.00;42.10;18.20;101513.00;;;;5032742;28;20045;-71
2022/05/04 06:27:16;;;;;;;4.30;1.27;;;19.00;42.00;18.10;101515.00;;;;5030198;28;20554;-71
2022/05/04 06:36:12;;;;;;;5.43;1.38;;;19.00;42.00;18.10;101508.00;;;;5035303;28;20040;-71
2022/05/04 06:38:58;;;;;;;4.35;1.10;;;19.00;42.00;18.20;101511.00;;;;5023726;28;20071;-71
2022/05/04 06:41:44;;;;;;;4.07;1.45;;;19.00;42.00;18.20;101512.00;;;;5039531;28;20038;-71
2022/05/04 06:44:30;;;;;;;5.97;1.98;;;19.00;42.00;18.20;101510.00;;;;5039190;28;20052;-71
2022/05/04 06:47:16;;;;;;;3.65;1.30;;;19.00;41.90;18.20;101521.00;;;;5045308;28;20053;-70
2022/05/04 06:50:06;;;;;;;6.28;1.77;;;19.00;42.00;18.20;101522.00;;;;5039234;28;20056;-71
2022/05/04 06:52:52;;;;;;;4.60;1.50;;;19.10;42.00;18.20;101526.00;;;;5036587;28;20102;-70
2022/05/04 06:55:38;;;;;;;5.32;1.83;;;19.10;42.00;18.20;101521.00;;;;5029499;28;20057;-71
2022/05/04 06:58:24;;;;;;;3.75;1.20;;;19.10;41.90;18.20;101519.00;;;;5038275;28;20047;-71
2022/05/04 07:01:12;;;;;;;4.95;1.60;;;19.10;41.90;18.20;101517.00;;;;5014963;28;20103;-71
2022/05/04 07:03:58;;;;;;;5.43;2.33;;;19.10;41.90;18.20;101524.00;;;;5013466;28;20051;-71
2022/05/04 07:06:44;;;;;;;5.05;1.10;;;19.10;41.80;18.20;101522.00;;;;5040081;28;20123;-71
2022/05/04 07:09:30;;;;;;;3.88;1.13;;;19.00;41.70;18.20;101513.00;;;;5045580;28;20083;-71
2022/05/04 07:12:16;;;;;;;4.53;1.30;;;19.10;41.80;18.20;101516.00;;;;5037253;28;20045;-71
2022/05/04 07:15:03;;;;;;;5.35;1.67;;;19.00;41.70;18.20;101519.00;;;;5033350;28;20045;-71
2022/05/04 07:17:49;;;;;;;5.50;1.45;;;19.10;41.70;18.20;101518.00;;;;5033813;28;20053;-71
2022/05/04 07:20:35;;;;;;;3.70;1.13;;;19.10;41.60;18.20;101517.00;;;;5024413;28;20047;-71
2022/05/04 07:23:21;;;;;;;5.18;1.50;;;19.10;41.60;18.20;101508.00;;;;5035409;28;20486;-71
2022/05/04 07:26:07;;;;;;;5.07;1.30;;;19.10;41.60;18.20;101511.00;;;;5024178;28;20538;-71
2022/05/04 07:28:53;;;;;;;3.80;1.27;;;19.10;41.60;18.20;101517.00;;;;5036887;28;20040;-71
2022/05/04 07:31:39;;;;;;;4.22;1.40;;;19.10;41.50;18.20;101514.00;;;;5040110;28;20033;-71
2022/05/04 07:34:25;;;;;;;2.70;1.20;;;19.20;41.60;18.20;101519.00;;;;5031653;28;20037;-71
2022/05/04 07:37:12;;;;;;;3.92;1.38;;;19.10;41.50;18.20;101515.00;;;;5047628;28;20044;-71
2022/05/04 07:43:02;;;;;;;5.78;1.55;;;19.10;41.50;18.20;101523.00;;;;5041632;28;20047;-70
2022/05/04 07:45:48;;;;;;;4.88;1.42;;;19.10;41.50;18.20;101524.00;;;;5039312;28;20287;-70
2022/05/04 07:48:34;;;;;;;7.53;1.85;;;19.10;41.50;18.20;101521.00;;;;5043936;28;20418;-71
2022/05/04 07:51:20;;;;;;;6.82;1.30;;;19.20;41.60;18.20;101520.00;;;;5045891;28;20040;-71
2022/05/04 07:54:08;;;;;;;5.38;1.45;;;19.10;41.50;18.20;101516.00;;;;5042743;28;20045;-70
2022/05/04 07:56:54;;;;;;;5.43;1.75;;;19.20;41.50;18.20;101521.00;;;;5037431;28;20156;-71
2022/05/04 07:59:40;;;;;;;5.72;1.58;;;19.10;41.40;18.20;101535.00;;;;5027534;28;20038;-71
2022/05/04 08:05:31;;;;;;;4.07;1.17;;;19.10;41.30;18.20;101531.00;;;;5034597;28;20029;-71
2022/05/04 08:08:17;;;;;;;5.13;1.50;;;19.10;41.30;18.20;101535.00;;;;5027255;28;20037;-71
2022/05/04 08:11:04;;;;;;;4.03;1.20;;;19.10;41.30;18.20;101528.00;;;;5030218;28;20049;-71
2022/05/04 08:13:50;;;;;;;5.40;1.48;;;19.20;41.40;18.20;101523.00;;;;5032678;28;20064;-71
2022/05/04 08:16:36;;;;;;;4.22;1.30;;;19.10;41.30;18.20;101516.00;;;;5030685;28;20787;-71
2022/05/04 08:19:22;;;;;;;4.22;1.77;;;19.20;41.40;18.30;101523.00;;;;5036753;28;20084;-71
2022/05/04 08:22:12;;;;;;;3.40;1.45;;;19.20;41.40;18.30;101525.00;;;;5029572;28;20044;-71
2022/05/04 08:24:58;;;;;;;6.93;2.85;;;19.10;41.30;18.30;101525.00;;;;5036650;28;20042;-71
2022/05/04 08:27:44;;;;;;;8.82;1.75;;;19.20;41.30;18.30;101533.00;;;;5041292;28;20045;-71
2022/05/04 08:30:30;;;;;;;5.97;1.55;;;19.10;41.30;18.30;101530.00;;;;5035631;28;20095;-71
2022/05/04 08:33:18;;;;;;;6.22;1.65;;;19.20;41.30;18.30;101524.00;;;;5037777;28;20045;-71
2022/05/04 08:36:04;;;;;;;4.63;1.27;;;19.20;41.30;18.30;101528.00;;;;5029407;28;20048;-71
2022/05/04 08:38:50;;;;;;;3.83;1.33;;;19.20;41.30;18.30;101526.00;;;;5034795;28;20029;-71
2022/05/04 08:41:40;;;;;;;5.53;1.55;;;19.20;41.30;18.30;101527.00;;;;5040137;28;20037;-71
2022/05/04 08:44:27;;;;;;;5.57;1.65;;;19.20;41.30;18.30;101524.00;;;;5023523;28;20481;-71
2022/05/04 08:47:14;;;;;;;4.82;1.38;;;19.20;41.40;18.30;101529.00;;;;5026742;28;20045;-70
2022/05/04 08:50:00;;;;;;;6.38;1.50;;;19.20;41.30;18.30;101530.00;;;;5026137;28;20140;-71
2022/05/04 08:52:53;;;;;;;2.40;1.23;;;19.30;41.30;18.30;101524.00;;;;5020194;28;20084;-71
2022/05/04 08:55:39;;;;;;;4.35;1.58;;;19.20;41.20;18.30;101525.00;;;;5034565;28;20053;-71
2022/05/04 08:58:25;;;;;;;7.03;1.73;;;19.20;41.30;18.30;101526.00;;;;5021872;28;20041;-71
2022/05/04 09:01:13;;;;;;;4.40;1.13;;;19.20;41.30;18.30;101519.00;;;;5018983;28;20063;-71
2022/05/04 09:03:59;;;;;;;4.45;1.20;;;19.20;41.30;18.30;101514.00;;;;5031591;28;20240;-71
2022/05/04 09:06:45;;;;;;;4.32;1.27;;;19.20;41.30;18.30;101511.00;;;;5035828;28;20048;-71
2022/05/04 09:09:34;;;;;;;7.47;1.52;;;19.20;41.30;18.30;101511.00;;;;5036874;28;20045;-71
2022/05/04 09:12:20;;;;;;;3.75;1.30;;;19.30;41.30;18.30;101508.00;;;;5019086;28;20094;-71
2022/05/04 09:15:19;;;;;;;5.22;1.40;;;19.20;41.30;18.30;101503.00;;;;5021155;28;20038;-71
2022/05/04 09:18:16;;;;;;;4.63;1.02;;;19.20;41.30;18.30;101509.00;;;;5016258;28;20491;-71
2022/05/04 09:21:04;;;;;;;3.72;1.15;;;19.30;41.40;18.30;101506.00;;;;5015319;28;20581;-71
2022/05/04 09:23:53;;;;;;;;;;;19.30;41.40;18.30;101509.00;;;;5024311;28;20092;-71
2022/05/04 09:26:42;;;;;;;4.80;1.70;;;19.20;41.40;18.30;101504.00;;;;5036784;28;20369;-71
2022/05/04 09:29:36;;;;;;;6.63;1.65;;;19.40;41.40;18.30;101497.00;;;;5022705;28;20033;-71
2022/05/04 09:32:22;;;;;;;3.95;1.20;;;19.40;41.40;18.30;101495.00;;;;5041131;28;20049;-71
2022/05/04 09:35:15;;;;;;;4.32;1.23;;;19.30;41.40;18.30;101494.00;;;;5002152;28;20071;-71
2022/05/04 09:47:33;;;;;;;6.70;1.40;;;19.40;41.50;18.30;101494.00;;;;5038998;28;20041;-71
2022/05/04 09:50:20;;;;;;;3.63;1.15;;;19.30;41.50;18.40;101491.00;;;;5016029;28;20044;-71
2022/05/04 09:53:06;;;;;;;4.78;1.40;;;19.30;41.50;18.40;101489.00;;;;5039669;28;20041;-71
2022/05/04 09:55:53;;;;;;;6.93;1.83;;;19.30;41.60;18.40;101487.00;;;;5037333;28;20045;-71
2022/05/04 09:58:39;;;;;;;4.50;1.58;;;19.30;41.60;18.40;101498.00;;;;5032734;28;20037;-71
2022/05/04 10:01:26;;;;;;;2.60;1.10;;;19.40;41.60;18.40;101491.00;;;;5014932;28;20090;-71
2022/05/04 10:04:12;;;;;;;6.38;1.98;;;19.30;41.60;18.40;101482.00;;;;5012417;28;20049;-71
2022/05/04 10:07:00;;;;;;;4.43;1.52;;;19.40;41.60;18.40;101478.00;;;;5028499;28;20162;-71
2022/05/04 10:09:46;;;;;;;5.68;1.70;;;19.40;41.60;18.40;101473.00;;;;5031842;28;20120;-71
2022/05/04 10:12:38;;;;;;;3.70;1.15;;;19.40;41.60;18.40;101466.00;;;;5025246;28;21560;-71
2022/05/04 10:15:24;;;;;;;4.80;1.80;;;19.40;41.70;18.50;101472.00;;;;5018798;28;20099;-71
2022/05/04 10:18:18;;;;;;;3.55;1.58;;;19.40;41.70;18.50;101478.00;;;;5013321;28;20434;-71
2022/05/04 10:21:12;;;;;;;3.92;1.42;;;19.40;41.70;18.50;101477.00;;;;5013388;28;20052;-70
2022/05/04 10:24:06;;;;;;;3.60;1.40;;;19.40;41.70;18.50;101471.00;;;;5036421;28;20037;-71
2022/05/04 10:27:00;;;;;;;3.15;1.20;;;19.40;41.60;18.50;101473.00;;;;5029596;28;20033;-71
2022/05/04 10:33:10;;;;;;;2.95;1.52;;;19.40;41.50;18.50;101467.00;;;;5026575;28;20042;-71
2022/05/04 10:35:56;;;;;;;3.67;1.40;;;19.40;41.50;18.50;101462.00;;;;5030957;28;20076;-71
2022/05/04 10:38:42;;;;;;;4.82;1.60;;;19.40;41.50;18.50;101459.00;;;;5040702;28;20037;-71
2022/05/04 10:41:38;;;;;;;2.30;1.25;;;19.40;41.60;18.50;101456.00;;;;5027773;28;20045;-71
2022/05/04 10:44:52;;;;;;;4.63;1.73;;;19.40;41.50;18.50;101456.00;;;;5033820;28;20045;-71
2022/05/04 10:47:40;;;;;;;6.10;2.13;;;19.50;41.60;18.50;101454.00;;;;5033486;28;20092;-71
2022/05/04 10:50:26;;;;;;;;;;;19.50;41.60;18.50;101457.00;;;;5030684;28;20037;-71
2022/05/04 10:54:00;;;;;;;3.45;1.50;;;19.50;41.70;18.50;101455.00;;;;5036449;28;19913;-71
2022/05/04 10:56:48;;;;;;;3.83;1.70;;;19.50;41.50;18.50;101449.00;;;;5037969;28;20124;-71
2022/05/04 10:59:35;;;;;;;5.55;2.00;;;19.60;41.50;18.50;101444.00;;;;5046430;28;20037;-71
2022/05/04 11:02:22;;;;;;;8.65;2.00;;;19.60;41.50;18.50;101441.00;;;;5035152;28;20041;-72
2022/05/04 11:05:47;;;;;;;4.15;1.83;;;19.50;41.50;18.50;101439.00;;;;5032058;28;20267;-71
2022/05/04 11:08:35;;;;;;;4.47;2.15;;;19.50;41.50;18.50;101439.00;;;;5006861;28;20201;-71
2022/05/04 11:11:50;;;;;;;5.32;1.65;;;19.60;41.50;18.50;101445.00;;;;5045907;28;20040;-71
2022/05/04 11:14:36;;;;;;;3.80;1.77;;;19.60;41.50;18.50;101438.00;;;;5015073;28;20049;-71
2022/05/04 11:17:23;;;;;;;3.83;1.83;;;19.60;41.50;18.50;101440.00;;;;5034147;28;20440;-71
2022/05/04 11:20:13;;;;;;;6.80;2.22;;;19.60;41.50;18.50;101443.00;;;;5031728;28;20502;-71
2022/05/04 11:22:59;;;;;;;5.82;2.08;;;19.60;41.50;18.60;101442.00;;;;5019747;28;20379;-71
2022/05/04 11:25:49;;;;;;;5.22;1.63;;;19.50;41.50;18.60;101435.00;;;;5016468;28;20029;-71
2022/05/04 11:28:35;;;;;;;4.50;1.70;;;19.60;41.50;18.60;101439.00;;;;5007083;28;20045;-71
2022/05/04 11:31:21;;;;;;;4.13;1.60;;;19.60;41.50;18.60;101428.00;;;;5036579;28;20535;-71
2022/05/04 11:34:07;;;;;;;5.55;2.17;;;19.60;41.50;18.60;101427.00;;;;5032286;28;20045;-71
2022/05/04 11:36:59;;;;;;;1.92;1.50;;;19.60;41.60;18.60;101432.00;;;;5034928;28;20047;-71
2022/05/04 11:39:45;;;;;;;3.25;1.55;;;19.60;41.50;18.60;101426.00;;;;5033737;28;20702;-71
2022/05/04 11:42:31;;;;;;;5.45;1.90;;;19.60;41.50;18.60;101423.00;;;;5031611;28;20139;-71
2022/05/04 11:45:17;;;;;;;5.50;2.22;;;19.70;41.50;18.60;101422.00;;;;5029723;28;20049;-71
2022/05/04 11:48:03;;;;;;;5.25;1.80;;;19.60;41.40;18.60;101413.00;;;;5000744;28;20051;-71
2022/05/04 11:50:49;;;;;;;4.35;1.90;;;19.60;41.40;18.60;101425.00;;;;5012080;28;20120;-71
2022/05/04 11:53:36;;;;;;;3.75;1.95;;;19.70;41.40;18.60;101417.00;;;;5035613;28;20041;-70
2022/05/04 11:56:22;;;;;;;4.65;1.75;;;19.70;41.30;18.60;101414.00;;;;5019088;28;20155;-71
2022/05/04 11:59:08;;;;;;;4.57;1.85;;;19.70;41.40;18.60;101417.00;;;;5034169;28;20090;-71
2022/05/04 12:01:54;;;;;;;4.18;1.88;;;19.70;41.30;18.70;101405.00;;;;5036600;28;20203;-71
2022/05/04 12:04:40;;;;;;;4.68;1.77;;;19.70;41.30;18.70;101404.00;;;;5006214;28;20390;-71
2022/05/04 12:07:26;;;;;;;6.72;2.42;;;19.70;41.30;18.70;101400.00;;;;5021059;28;20087;-70
2022/05/04 12:10:13;;;;;;;5.72;2.17;;;19.70;41.30;18.70;101399.00;;;;5010863;28;20083;-71
2022/05/04 12:13:00;;;;;;;8.50;2.60;;;19.70;41.00;18.70;101398.00;;;;5012444;28;20095;-71
2022/05/04 12:15:46;;;;;;;6.38;2.30;;;19.70;40.90;18.70;101391.00;;;;5034677;28;20041;-71
2022/05/04 12:18:35;;;;;;;8.55;2.47;;;19.80;41.00;18.70;101392.00;;;;5023589;28;20486;-70
2022/05/04 12:21:21;;;;;;;9.38;2.47;;;19.70;40.90;18.70;101386.00;;;;5025988;28;20043;-71
2022/05/04 12:24:07;;;;;;;8.25;2.58;;;19.80;40.90;18.70;101401.00;;;;5036383;28;20581;-70
2022/05/04 12:26:55;;;;;;;11.93;3.08;;;19.80;41.00;18.70;101392.00;;;;5022668;28;20106;-70
2022/05/04 12:35:51;;;;;;;7.78;3.38;;;19.80;40.90;18.70;101394.00;;;;5028629;28;20423;-70
2022/05/04 12:38:45;;;;;;;4.30;1.95;;;19.90;40.90;18.70;101390.00;;;;5037513;28;20092;-70
2022/05/04 12:41:31;;;;;;;7.10;2.28;;;19.90;40.80;18.70;101382.00;;;;5022007;28;20060;-70
2022/05/04 12:44:17;;;;;;;11.32;2.33;;;19.90;40.70;18.70;101383.00;;;;5009782;28;20044;-70
2022/05/04 12:47:04;;;;;;;7.40;2.60;;;19.90;40.70;18.80;101382.00;;;;5037628;28;20506;-72
2022/05/04 12:49:50;;;;;;;6.20;2.10;;;19.90;40.60;18.80;101381.00;;;;5035456;28;20045;-71
2022/05/04 12:52:39;;;;;;;4.32;2.10;;;19.90;40.50;18.80;101385.00;;;;5010544;28;20076;-71
2022/05/04 12:58:30;;;;;;;9.25;2.63;;;19.90;40.30;18.80;101387.00;;;;5032316;28;20143;-70